createdAt,value
2023-04-09T00:00:03.368Z,51.50
2023-04-09T00:02:30.200Z,51.20
2023-04-09T00:04:56.901Z,51.20
2023-04-09T00:07:23.785Z,51.20
2023-04-09T00:09:50.535Z,52.00
2023-04-09T00:12:17.416Z,51.70
2023-04-09T00:14:44.304Z,51.90
2023-04-09T00:17:11.297Z,51.60
2023-04-09T00:19:38.899Z,51.90
2023-04-09T00:22:05.782Z,51.40
2023-04-09T00:24:32.542Z,51.40
2023-04-09T00:26:59.429Z,51.90
2023-04-09T00:29:26.306Z,51.10
2023-04-09T00:31:53.203Z,51.50
2023-04-09T00:34:20.064Z,51.70
2023-04-09T00:36:46.945Z,50.70
2023-04-09T00:39:13.831Z,51.60
2023-04-09T00:41:40.710Z,51.00
2023-04-09T00:44:07.592Z,51.00
2023-04-09T00:46:34.357Z,51.00
2023-04-09T00:49:01.236Z,51.00
2023-04-09T00:51:28.713Z,51.40
2023-04-09T00:53:55.840Z,51.50
2023-04-09T00:56:23.440Z,51.30
2023-04-09T00:58:50.794Z,51.60
2023-04-09T01:01:17.850Z,51.20
2023-04-09T01:03:44.981Z,50.90
2023-04-09T01:06:30.881Z,50.60
2023-04-09T01:09:00.758Z,50.80
2023-04-09T01:11:30.650Z,50.80
2023-04-09T01:14:29.681Z,50.90
2023-04-09T01:16:59.928Z,50.80
2023-04-09T01:19:45.556Z,50.90
2023-04-09T01:22:42.041Z,51.10
2023-04-09T01:25:27.408Z,50.80
2023-04-09T01:28:14.560Z,50.80
2023-04-09T01:30:43.783Z,50.80
2023-04-09T01:33:11.687Z,51.10
2023-04-09T01:35:38.707Z,50.80
2023-04-09T01:38:05.580Z,51.00
2023-04-09T01:40:32.449Z,50.80
2023-04-09T01:43:00.288Z,50.60
2023-04-09T01:45:27.530Z,50.70
2023-04-09T01:47:55.897Z,51.00
2023-04-09T01:50:23.006Z,50.80
2023-04-09T01:52:49.992Z,50.70
2023-04-09T01:55:16.852Z,50.80
2023-04-09T01:57:43.977Z,50.70
2023-04-09T02:00:11.216Z,50.70
2023-04-09T02:02:44.203Z,50.70
2023-04-09T02:05:12.190Z,50.70
2023-04-09T02:07:40.756Z,50.90
2023-04-09T02:10:08.697Z,51.40
2023-04-09T02:12:38.945Z,51.00
2023-04-09T02:15:06.903Z,51.10
2023-04-09T02:17:33.833Z,50.60
2023-04-09T02:20:00.788Z,50.60
2023-04-09T02:22:27.562Z,50.80
2023-04-09T02:24:54.428Z,50.80
2023-04-09T02:27:21.428Z,50.70
2023-04-09T02:29:48.313Z,50.50
2023-04-09T02:32:15.193Z,50.50
2023-04-09T02:34:42.579Z,50.80
2023-04-09T02:37:09.430Z,50.70
2023-04-09T02:39:36.314Z,50.70
2023-04-09T02:42:03.192Z,50.60
2023-04-09T02:44:29.959Z,50.80
2023-04-09T02:46:56.839Z,50.70
2023-04-09T02:49:23.717Z,50.60
2023-04-09T02:51:50.479Z,51.00
2023-04-09T02:54:17.264Z,50.80
2023-04-09T02:56:44.120Z,51.00
2023-04-09T02:59:11.121Z,50.80
2023-04-09T03:01:38.109Z,50.30
2023-04-09T03:04:05.220Z,50.40
2023-04-09T03:06:32.131Z,51.10
2023-04-09T03:08:59.010Z,50.60
2023-04-09T03:11:25.888Z,50.50
2023-04-09T03:13:52.670Z,50.00
2023-04-09T03:16:19.600Z,50.00
2023-04-09T03:18:46.537Z,50.00
2023-04-09T03:21:14.994Z,50.80
2023-04-09T03:23:43.895Z,50.40
2023-04-09T03:26:10.773Z,50.10
2023-04-09T03:28:37.670Z,50.10
2023-04-09T03:31:04.569Z,50.30
2023-04-09T03:33:31.422Z,50.10
2023-04-09T03:35:58.330Z,50.40
2023-04-09T03:38:25.190Z,50.50
2023-04-09T03:40:52.073Z,50.30
2023-04-09T03:43:18.974Z,50.20
2023-04-09T03:45:45.946Z,50.20
2023-04-09T03:48:12.730Z,50.20
2023-04-09T03:50:40.915Z,50.40
2023-04-09T03:53:07.920Z,50.30
2023-04-09T03:55:34.786Z,50.90
2023-04-09T03:58:01.560Z,49.90
2023-04-09T04:00:28.428Z,50.20
2023-04-09T04:02:55.446Z,49.80
2023-04-09T04:05:26.404Z,50.00
2023-04-09T04:07:53.315Z,49.80
2023-04-09T04:10:20.156Z,49.70
2023-04-09T04:12:47.205Z,49.40
2023-04-09T04:15:14.152Z,49.60
2023-04-09T04:17:41.093Z,49.20
2023-04-09T04:20:08.273Z,51.10
2023-04-09T04:22:35.873Z,49.20
2023-04-09T04:25:03.608Z,49.70
2023-04-09T04:27:30.475Z,49.90
2023-04-09T04:29:58.678Z,50.10
2023-04-09T04:32:25.698Z,49.90
2023-04-09T04:34:52.452Z,49.70
2023-04-09T04:37:19.322Z,49.70
2023-04-09T04:39:46.204Z,49.60
2023-04-09T04:42:13.086Z,48.70
2023-04-09T04:44:39.975Z,49.60
2023-04-09T04:47:06.968Z,50.80
2023-04-09T04:49:33.748Z,49.80
2023-04-09T04:52:00.729Z,49.50
2023-04-09T04:54:27.607Z,49.60
2023-04-09T04:56:54.368Z,49.50
2023-04-09T04:59:21.254Z,49.60
2023-04-09T05:01:48.286Z,49.90
2023-04-09T05:04:15.253Z,49.30
2023-04-09T05:06:42.019Z,49.50
2023-04-09T05:09:08.898Z,49.60
2023-04-09T05:11:35.786Z,49.60
2023-04-09T05:14:02.774Z,49.20
2023-04-09T05:16:29.829Z,50.00
2023-04-09T05:18:56.662Z,49.40
2023-04-09T05:21:23.656Z,49.20
2023-04-09T05:23:50.661Z,49.30
2023-04-09T05:26:17.539Z,49.40
2023-04-09T05:28:44.305Z,49.10
2023-04-09T05:31:13.528Z,49.50
2023-04-09T05:33:40.722Z,49.50
2023-04-09T05:36:07.734Z,50.40
2023-04-09T05:38:34.852Z,49.50
2023-04-09T05:41:01.771Z,50.00
2023-04-09T05:43:28.724Z,49.60
2023-04-09T05:45:56.086Z,49.80
2023-04-09T05:48:22.953Z,49.90
2023-04-09T05:50:55.010Z,49.60
2023-04-09T05:53:23.206Z,49.80
2023-04-09T05:55:50.102Z,49.90
2023-04-09T05:58:18.781Z,49.80
2023-04-09T06:00:45.758Z,50.00
2023-04-09T06:03:12.653Z,50.00
2023-04-09T06:05:39.643Z,49.90
2023-04-09T06:08:06.521Z,50.00
2023-04-09T06:10:33.280Z,50.00
2023-04-09T06:12:59.933Z,50.20
2023-04-09T06:15:26.858Z,50.00
2023-04-09T06:17:53.707Z,50.30
2023-04-09T06:20:21.288Z,50.10
2023-04-09T06:22:48.046Z,50.20
2023-04-09T06:25:14.836Z,50.30
2023-04-09T06:27:41.693Z,50.30
2023-04-09T06:30:08.956Z,50.20
2023-04-09T06:32:46.761Z,50.60
2023-04-09T06:35:18.418Z,50.40
2023-04-09T06:37:45.175Z,50.50
2023-04-09T06:40:12.293Z,50.50
2023-04-09T06:42:39.067Z,50.50
2023-04-09T06:45:08.954Z,50.40
2023-04-09T06:47:36.246Z,50.80
2023-04-09T06:50:03.293Z,50.60
2023-04-09T06:52:30.412Z,50.70
2023-04-09T06:54:57.175Z,50.80
2023-04-09T06:57:23.950Z,50.70
2023-04-09T06:59:50.715Z,50.90
2023-04-09T07:02:17.571Z,50.70
2023-04-09T07:04:44.604Z,51.00
2023-04-09T07:07:12.827Z,50.90
2023-04-09T07:09:39.781Z,50.90
2023-04-09T07:12:06.545Z,51.00
2023-04-09T07:14:33.426Z,51.10
2023-04-09T07:17:00.310Z,51.10
2023-04-09T07:19:27.071Z,51.00
2023-04-09T07:21:53.834Z,51.10
2023-04-09T07:24:20.712Z,51.10
2023-04-09T07:26:48.146Z,51.00
2023-04-09T07:29:15.550Z,51.10
2023-04-09T07:31:42.340Z,51.70
2023-04-09T07:34:09.197Z,50.70
2023-04-09T07:36:36.073Z,51.10
2023-04-09T07:39:02.836Z,51.30
2023-04-09T07:41:29.970Z,51.40
2023-04-09T07:43:56.719Z,51.20
2023-04-09T07:46:23.653Z,51.20
2023-04-09T07:48:50.939Z,51.00
2023-04-09T07:51:18.210Z,51.00
2023-04-09T07:53:45.169Z,51.00
2023-04-09T07:56:12.323Z,51.10
2023-04-09T07:58:39.206Z,51.10
2023-04-09T08:01:06.325Z,51.00
2023-04-09T08:03:33.324Z,51.10
2023-04-09T08:06:00.337Z,51.30
2023-04-09T08:08:27.091Z,51.30
2023-04-09T08:10:54.062Z,51.50
2023-04-09T08:13:22.892Z,51.40
2023-04-09T08:15:49.651Z,51.50
2023-04-09T08:18:16.412Z,51.30
2023-04-09T08:20:45.531Z,51.40
2023-04-09T08:23:12.602Z,51.50
2023-04-09T08:25:39.483Z,51.60
2023-04-09T08:28:06.593Z,51.70
2023-04-09T08:30:34.416Z,51.50
2023-04-09T08:33:01.707Z,51.70
2023-04-09T08:35:30.098Z,51.70
2023-04-09T08:37:56.987Z,51.70
2023-04-09T08:40:23.980Z,51.80
2023-04-09T08:42:54.228Z,51.70
2023-04-09T08:45:21.103Z,51.80
2023-04-09T08:47:48.501Z,51.80
2023-04-09T08:50:15.823Z,52.10
2023-04-09T08:52:42.954Z,52.10
2023-04-09T08:55:11.768Z,51.80
2023-04-09T08:57:39.108Z,51.90
2023-04-09T09:00:06.708Z,52.00
2023-04-09T09:02:33.513Z,52.10
2023-04-09T09:05:03.357Z,52.10
2023-04-09T09:07:30.470Z,52.10
2023-04-09T09:09:58.843Z,52.00
2023-04-09T09:12:32.074Z,52.00
2023-04-09T09:14:58.918Z,52.20
2023-04-09T09:17:26.334Z,52.20
2023-04-09T09:19:53.167Z,52.10
2023-04-09T09:22:20.039Z,52.40
2023-04-09T09:24:51.234Z,52.30
2023-04-09T09:27:36.610Z,52.50
2023-04-09T09:30:04.922Z,52.40
2023-04-09T09:32:34.941Z,52.50
2023-04-09T09:35:05.765Z,52.40
2023-04-09T09:37:33.012Z,52.50
2023-04-09T09:40:00.369Z,52.10
2023-04-09T09:42:27.620Z,52.20
2023-04-09T09:44:55.387Z,52.20
2023-04-09T09:47:23.515Z,52.50
2023-04-09T09:49:51.010Z,52.60
2023-04-09T09:52:24.010Z,52.70
2023-04-09T09:54:52.832Z,52.60
2023-04-09T09:57:20.421Z,52.70
2023-04-09T09:59:50.899Z,52.70
2023-04-09T10:02:23.355Z,52.60
2023-04-09T10:04:52.998Z,52.50
2023-04-09T10:07:21.139Z,52.20
2023-04-09T10:09:49.469Z,52.70
2023-04-09T10:12:16.703Z,52.80
2023-04-09T10:14:43.706Z,52.80
2023-04-09T10:17:10.697Z,52.90
2023-04-09T10:19:40.468Z,52.90
2023-04-09T10:22:11.667Z,52.80
2023-04-09T10:24:38.663Z,52.80
2023-04-09T10:27:17.064Z,53.00
2023-04-09T10:29:45.504Z,53.10
2023-04-09T10:32:12.989Z,53.00
2023-04-09T10:34:40.947Z,53.10
2023-04-09T10:37:09.768Z,52.90
2023-04-09T10:39:41.080Z,52.80
2023-04-09T10:42:09.150Z,53.10
2023-04-09T10:44:38.192Z,52.80
2023-04-09T10:47:06.273Z,53.00
2023-04-09T10:49:51.272Z,52.80
2023-04-09T10:52:30.289Z,53.10
2023-04-09T10:54:57.277Z,53.20
2023-04-09T10:57:24.649Z,53.10
2023-04-09T10:59:52.478Z,52.70
2023-04-09T11:02:32.081Z,52.70
2023-04-09T11:05:02.210Z,52.90
2023-04-09T11:07:30.522Z,53.00
2023-04-09T11:09:57.286Z,53.10
2023-04-09T11:12:24.175Z,53.00
2023-04-09T11:14:50.930Z,53.10
2023-04-09T11:17:18.788Z,52.90
2023-04-09T11:19:46.506Z,52.90
2023-04-09T11:22:13.488Z,52.80
2023-04-09T11:24:41.084Z,53.20
2023-04-09T11:27:07.968Z,53.00
2023-04-09T11:29:35.361Z,53.20
2023-04-09T11:32:02.693Z,53.10
2023-04-09T11:34:29.566Z,52.90
2023-04-09T11:36:57.167Z,53.30
2023-04-09T11:39:23.929Z,52.80
2023-04-09T11:41:50.808Z,53.10
2023-04-09T11:44:17.695Z,53.00
2023-04-09T11:46:44.723Z,53.30
2023-04-09T11:49:11.812Z,53.20
2023-04-09T11:51:38.697Z,53.20
2023-04-09T11:54:06.062Z,53.20
2023-04-09T11:56:33.179Z,53.30
2023-04-09T11:59:00.061Z,53.40
2023-04-09T12:01:31.680Z,53.40
2023-04-09T12:03:58.717Z,53.00
2023-04-09T12:06:25.993Z,53.10
2023-04-09T12:08:53.627Z,53.10
2023-04-09T12:11:20.703Z,53.10
2023-04-09T12:13:47.851Z,53.30
2023-04-09T12:16:15.165Z,53.10
2023-04-09T12:18:42.076Z,53.20
2023-04-09T12:21:09.067Z,53.50
2023-04-09T12:23:36.191Z,53.30
2023-04-09T12:26:03.072Z,53.30
2023-04-09T12:28:30.552Z,53.40
2023-04-09T12:30:59.646Z,53.50
2023-04-09T12:33:26.592Z,53.40
2023-04-09T12:35:53.388Z,53.50
2023-04-09T12:38:20.597Z,53.10
2023-04-09T12:40:47.481Z,53.50
2023-04-09T12:43:14.246Z,53.50
2023-04-09T12:45:41.034Z,53.50
2023-04-09T12:48:07.948Z,53.50
2023-04-09T12:50:34.880Z,53.50
2023-04-09T12:53:01.762Z,53.30
2023-04-09T12:55:28.644Z,53.60
2023-04-09T12:57:55.536Z,53.30
2023-04-09T13:00:22.285Z,53.70
2023-04-09T13:02:50.021Z,53.20
2023-04-09T13:05:16.886Z,53.50
2023-04-09T13:07:43.695Z,53.50
2023-04-09T13:10:10.800Z,53.50
2023-04-09T13:12:37.682Z,53.50
2023-04-09T13:15:04.774Z,53.30
2023-04-09T13:17:31.698Z,53.00
2023-04-09T13:19:58.533Z,53.30
2023-04-09T13:22:25.293Z,54.00
2023-04-09T13:24:52.780Z,53.40
2023-04-09T13:27:19.665Z,53.50
2023-04-09T13:29:46.427Z,53.30
2023-04-09T13:32:13.444Z,53.40
2023-04-09T13:34:40.896Z,53.80
2023-04-09T13:37:07.786Z,53.80
2023-04-09T13:39:34.549Z,53.70
2023-04-09T13:42:07.199Z,53.70
2023-04-09T13:44:42.438Z,53.90
2023-04-09T13:47:11.419Z,53.90
2023-04-09T13:49:38.383Z,53.80
2023-04-09T13:52:05.624Z,53.70
2023-04-09T13:54:32.758Z,53.70
2023-04-09T13:56:59.629Z,53.60
2023-04-09T13:59:26.640Z,53.70
2023-04-09T14:01:53.568Z,53.50
2023-04-09T14:04:20.432Z,53.40
2023-04-09T14:06:47.397Z,53.60
2023-04-09T14:09:14.632Z,54.30
2023-04-09T14:11:41.517Z,53.80
2023-04-09T14:14:08.391Z,53.70
2023-04-09T14:16:36.430Z,53.90
2023-04-09T14:19:03.846Z,54.10
2023-04-09T14:21:30.595Z,53.80
2023-04-09T14:23:57.359Z,53.80
2023-04-09T14:26:24.509Z,53.80
2023-04-09T14:28:51.709Z,53.70
2023-04-09T14:31:21.566Z,53.60
2023-04-09T14:33:49.113Z,53.40
2023-04-09T14:36:16.822Z,53.20
2023-04-09T14:38:43.686Z,53.30
2023-04-09T14:41:10.680Z,53.30
2023-04-09T14:43:37.572Z,53.40
2023-04-09T14:46:06.551Z,53.30
2023-04-09T14:48:33.384Z,53.50
2023-04-09T14:51:00.248Z,53.60
2023-04-09T14:53:27.138Z,53.40
2023-04-09T14:55:53.894Z,53.70
2023-04-09T14:58:20.897Z,53.60
2023-04-09T15:00:47.783Z,53.70
2023-04-09T15:03:14.846Z,53.70
2023-04-09T15:05:41.900Z,53.60
2023-04-09T15:08:08.673Z,53.40
2023-04-09T15:10:36.261Z,53.60
2023-04-09T15:13:03.159Z,53.40
2023-04-09T15:15:29.903Z,53.40
2023-04-09T15:17:56.840Z,53.70
2023-04-09T15:20:23.782Z,53.50
2023-04-09T15:22:50.661Z,53.50
2023-04-09T15:25:17.791Z,53.50
2023-04-09T15:27:44.563Z,53.50
2023-04-09T15:30:11.545Z,53.40
2023-04-09T15:32:38.312Z,53.50
2023-04-09T15:35:05.319Z,53.50
2023-04-09T15:37:32.311Z,53.60
2023-04-09T15:39:59.076Z,53.70
2023-04-09T15:42:25.954Z,53.60
2023-04-09T15:44:52.830Z,53.80
2023-04-09T15:47:19.591Z,53.60
2023-04-09T15:49:46.355Z,53.70
2023-04-09T15:52:13.472Z,53.60
2023-04-09T15:54:40.236Z,53.80
2023-04-09T15:57:07.018Z,53.90
2023-04-09T15:59:33.771Z,53.90
2023-04-09T16:02:00.735Z,53.70
2023-04-09T16:04:27.732Z,54.10
2023-04-09T16:06:56.396Z,54.20
2023-04-09T16:09:23.819Z,54.10
2023-04-09T16:11:51.210Z,54.10
2023-04-09T16:14:18.073Z,54.20
2023-04-09T16:16:49.619Z,54.00
2023-04-09T16:19:17.724Z,54.00
2023-04-09T16:21:45.655Z,53.90
2023-04-09T16:24:13.246Z,53.90
2023-04-09T16:26:43.628Z,54.00
2023-04-09T16:29:10.851Z,54.10
2023-04-09T16:31:39.230Z,54.40
2023-04-09T16:34:06.171Z,54.60
2023-04-09T16:36:37.022Z,54.10
2023-04-09T16:39:04.618Z,53.90
2023-04-09T16:41:31.493Z,53.90
2023-04-09T16:43:58.382Z,54.40
2023-04-09T16:46:25.194Z,54.10
2023-04-09T16:48:52.218Z,54.20
2023-04-09T16:51:19.135Z,54.20
2023-04-09T16:53:46.022Z,54.00
2023-04-09T16:56:12.900Z,54.10
2023-04-09T16:58:39.904Z,54.00
2023-04-09T17:01:07.094Z,54.20
2023-04-09T17:03:33.941Z,54.20
2023-04-09T17:06:00.782Z,53.80
2023-04-09T17:08:27.550Z,54.40
2023-04-09T17:11:02.353Z,54.40
2023-04-09T17:13:30.072Z,54.30
2023-04-09T17:15:56.838Z,54.20
2023-04-09T17:18:24.183Z,54.50
2023-04-09T17:20:51.068Z,54.60
2023-04-09T17:23:17.827Z,54.20
2023-04-09T17:25:44.711Z,54.60
2023-04-09T17:28:12.077Z,54.20
2023-04-09T17:30:38.971Z,54.70
2023-04-09T17:33:06.002Z,54.50
2023-04-09T17:35:33.031Z,54.20
2023-04-09T17:38:00.684Z,54.50
2023-04-09T17:40:27.685Z,54.40
2023-04-09T17:42:55.043Z,54.60
2023-04-09T17:45:21.922Z,54.60
2023-04-09T17:47:48.843Z,54.50
2023-04-09T17:50:15.562Z,54.70
2023-04-09T17:52:42.444Z,54.70
2023-04-09T17:55:12.467Z,55.20
2023-04-09T17:57:40.161Z,54.70
2023-04-09T18:00:07.765Z,54.70
2023-04-09T18:02:35.468Z,54.50
2023-04-09T18:05:04.610Z,54.20
2023-04-09T18:07:34.133Z,55.00
2023-04-09T18:10:02.156Z,54.60
2023-04-09T18:12:29.375Z,54.80
2023-04-09T18:14:56.250Z,54.80
2023-04-09T18:17:23.176Z,54.80
2023-04-09T18:19:50.017Z,54.20
2023-04-09T18:22:16.901Z,54.40
2023-04-09T18:24:43.773Z,54.20
2023-04-09T18:27:10.657Z,54.40
2023-04-09T18:29:37.418Z,54.40
2023-04-09T18:32:04.298Z,54.50
2023-04-09T18:34:31.538Z,54.50
2023-04-09T18:36:58.305Z,54.30
2023-04-09T18:39:25.660Z,54.20
2023-04-09T18:41:52.552Z,54.30
2023-04-09T18:44:19.447Z,54.30
2023-04-09T18:46:46.887Z,54.30
2023-04-09T18:49:13.790Z,54.40
2023-04-09T18:51:40.784Z,54.30
2023-04-09T18:54:07.551Z,54.50
2023-04-09T18:56:34.429Z,54.20
2023-04-09T18:59:01.433Z,54.50
2023-04-09T19:01:28.382Z,54.30
2023-04-09T19:03:55.286Z,54.40
2023-04-09T19:06:22.337Z,54.40
2023-04-09T19:08:50.520Z,54.60
2023-04-09T19:11:17.397Z,54.60
2023-04-09T19:13:44.279Z,54.80
2023-04-09T19:16:11.468Z,54.50
2023-04-09T19:18:38.286Z,54.60
2023-04-09T19:21:08.525Z,54.90
2023-04-09T19:23:35.426Z,54.50
2023-04-09T19:26:02.538Z,54.40
2023-04-09T19:28:29.526Z,54.30
2023-04-09T19:30:56.597Z,54.40
2023-04-09T19:33:25.589Z,54.60
2023-04-09T19:35:53.001Z,54.50
2023-04-09T19:38:20.169Z,54.70
2023-04-09T19:40:47.048Z,54.70
2023-04-09T19:43:14.054Z,54.70
2023-04-09T19:45:42.492Z,54.70
2023-04-09T19:48:09.650Z,54.90
2023-04-09T19:50:54.969Z,54.90
2023-04-09T19:53:21.617Z,54.90
2023-04-09T19:55:49.452Z,54.90
2023-04-09T19:58:16.571Z,54.50
2023-04-09T20:00:43.540Z,54.40
2023-04-09T20:03:10.651Z,54.50
2023-04-09T20:05:37.571Z,54.70
2023-04-09T20:08:04.709Z,54.70
2023-04-09T20:10:31.579Z,55.50
2023-04-09T20:12:58.344Z,54.70
2023-04-09T20:15:25.222Z,54.90
2023-04-09T20:17:52.894Z,54.90
2023-04-09T20:20:20.541Z,54.70
2023-04-09T20:22:55.543Z,54.90
2023-04-09T20:25:23.322Z,54.70
2023-04-09T20:27:52.597Z,54.40
2023-04-09T20:30:19.471Z,54.70
2023-04-09T20:32:46.275Z,54.70
2023-04-09T20:35:14.311Z,54.70
2023-04-09T20:37:41.310Z,54.90
2023-04-09T20:40:08.320Z,54.90
2023-04-09T20:42:35.071Z,54.90
2023-04-09T20:45:02.190Z,54.80
2023-04-09T20:47:29.248Z,55.00
2023-04-09T20:49:59.819Z,55.00
2023-04-09T20:52:29.917Z,54.90
2023-04-09T20:54:57.061Z,54.80
2023-04-09T20:57:24.155Z,54.50
2023-04-09T20:59:51.035Z,54.70
2023-04-09T21:02:17.908Z,54.70
2023-04-09T21:04:44.921Z,54.80
2023-04-09T21:07:12.036Z,54.90
2023-04-09T21:09:38.922Z,54.90
2023-04-09T21:12:06.175Z,55.10
2023-04-09T21:14:33.051Z,54.90
2023-04-09T21:16:59.956Z,54.70
2023-04-09T21:19:26.835Z,54.80
2023-04-09T21:21:54.296Z,55.10
2023-04-09T21:24:21.059Z,54.70
2023-04-09T21:26:50.934Z,54.50
2023-04-09T21:29:19.273Z,54.70
2023-04-09T21:31:46.495Z,54.70
2023-04-09T21:34:13.381Z,54.60
2023-04-09T21:36:40.654Z,54.40
2023-04-09T21:39:07.910Z,54.30
2023-04-09T21:41:34.755Z,54.20
2023-04-09T21:44:08.029Z,54.10
2023-04-09T21:46:37.798Z,54.10
2023-04-09T21:49:04.631Z,54.00
2023-04-09T21:51:32.308Z,54.30
2023-04-09T21:54:04.170Z,54.50
2023-04-09T21:56:32.005Z,54.50
2023-04-09T21:58:58.871Z,54.40
2023-04-09T22:01:29.476Z,54.50
2023-04-09T22:04:00.306Z,54.60
2023-04-09T22:06:27.676Z,55.10
2023-04-09T22:08:56.893Z,54.60
2023-04-09T22:11:26.856Z,54.40
2023-04-09T22:13:54.208Z,54.30
2023-04-09T22:16:21.118Z,54.30
2023-04-09T22:18:47.968Z,54.20
2023-04-09T22:21:15.815Z,54.30
2023-04-09T22:23:42.807Z,54.40
2023-04-09T22:26:10.165Z,54.50
2023-04-09T22:28:37.044Z,54.60
2023-04-09T22:31:04.092Z,54.60
2023-04-09T22:33:31.284Z,54.70
2023-04-09T22:35:59.597Z,54.60
2023-04-09T22:38:26.634Z,54.40
2023-04-09T22:40:54.690Z,54.50
2023-04-09T22:43:21.453Z,54.30
2023-04-09T22:45:52.324Z,54.40
2023-04-09T22:48:19.535Z,54.40
2023-04-09T22:50:46.774Z,54.60
2023-04-09T22:53:18.790Z,54.50
2023-04-09T22:55:51.245Z,54.50
2023-04-09T22:58:18.569Z,54.70
2023-04-09T23:00:45.455Z,54.70
2023-04-09T23:03:12.561Z,54.60
2023-04-09T23:05:39.696Z,54.50
2023-04-09T23:08:06.576Z,54.90
2023-04-09T23:10:33.455Z,54.40
2023-04-09T23:13:00.473Z,54.10
2023-04-09T23:15:28.195Z,54.10
2023-04-09T23:17:55.157Z,54.40
2023-04-09T23:20:22.174Z,54.50
2023-04-09T23:22:48.946Z,54.50
2023-04-09T23:25:16.310Z,54.50
2023-04-09T23:27:43.438Z,54.50
2023-04-09T23:30:10.423Z,54.50
2023-04-09T23:32:37.270Z,54.50
2023-04-09T23:35:04.444Z,54.40
2023-04-09T23:37:31.320Z,54.20
2023-04-09T23:39:58.348Z,54.30
2023-04-09T23:42:26.503Z,54.40
2023-04-09T23:44:53.281Z,54.40
2023-04-09T23:47:20.028Z,54.40
2023-04-09T23:49:47.031Z,54.30
2023-04-09T23:52:13.669Z,54.40
2023-04-09T23:54:47.159Z,54.60
2023-04-09T23:57:14.870Z,54.30
2023-04-09T23:59:41.755Z,54.00
